createdAt,value
2019-03-25T00:00:47.836Z,0.00
2019-03-25T00:01:47.804Z,0.00
2019-03-25T00:02:47.789Z,0.00
2019-03-25T00:03:47.764Z,0.00
2019-03-25T00:04:47.741Z,0.00
2019-03-25T00:05:47.721Z,0.00
2019-03-25T00:06:47.756Z,0.00
2019-03-25T00:07:47.686Z,0.00
2019-03-25T00:08:47.864Z,0.00
2019-03-25T00:09:47.639Z,0.00
2019-03-25T00:10:47.620Z,0.00
2019-03-25T00:11:47.602Z,0.00
2019-03-25T00:12:47.578Z,0.00
2019-03-25T00:13:47.566Z,0.00
2019-03-25T00:14:47.540Z,0.00
2019-03-25T00:15:47.523Z,0.00
2019-03-25T00:16:47.506Z,0.00
2019-03-25T00:17:47.479Z,0.00
2019-03-25T00:18:47.462Z,0.00
2019-03-25T00:19:47.439Z,0.00
2019-03-25T00:20:47.426Z,0.00
2019-03-25T00:21:47.396Z,0.00
2019-03-25T00:22:47.381Z,0.00
2019-03-25T00:23:47.367Z,0.00
2019-03-25T00:24:47.336Z,0.00
2019-03-25T00:25:47.321Z,0.00
2019-03-25T00:26:47.301Z,0.00
2019-03-25T00:27:47.277Z,0.00
2019-03-25T00:28:47.256Z,0.00
2019-03-25T00:29:47.240Z,0.00
2019-03-25T00:30:47.218Z,0.00
2019-03-25T00:31:47.200Z,0.00
2019-03-25T00:32:47.171Z,0.00
2019-03-25T00:33:47.155Z,0.00
2019-03-25T00:34:47.131Z,0.00
2019-03-25T00:35:47.162Z,0.00
2019-03-25T00:36:47.093Z,0.00
2019-03-25T00:37:47.072Z,0.00
2019-03-25T00:38:47.050Z,0.00
2019-03-25T00:39:47.042Z,0.00
2019-03-25T00:40:47.010Z,0.00
2019-03-25T00:41:46.989Z,0.00
2019-03-25T00:42:46.972Z,0.00
2019-03-25T00:43:46.951Z,0.00
2019-03-25T00:44:46.930Z,0.00
2019-03-25T00:45:46.907Z,0.00
2019-03-25T00:46:46.889Z,0.00
2019-03-25T00:47:46.869Z,0.00
2019-03-25T00:48:46.846Z,0.00
2019-03-25T00:49:46.827Z,0.00
2019-03-25T00:50:46.806Z,0.00
2019-03-25T00:51:46.788Z,0.00
2019-03-25T00:52:46.764Z,0.00
2019-03-25T00:53:46.799Z,0.00
2019-03-25T00:54:50.176Z,0.00
2019-03-25T00:55:46.705Z,0.00
2019-03-25T00:56:46.683Z,0.00
2019-03-25T00:57:46.666Z,0.00
2019-03-25T00:58:46.643Z,0.00
2019-03-25T00:59:48.904Z,0.00
2019-03-25T01:00:46.604Z,0.00
2019-03-25T01:01:46.580Z,0.00
2019-03-25T01:02:46.566Z,0.00
2019-03-25T01:03:46.545Z,0.00
2019-03-25T01:04:46.519Z,0.00
2019-03-25T01:05:46.499Z,0.00
2019-03-25T01:06:46.478Z,0.00
2019-03-25T01:07:46.462Z,0.00
2019-03-25T01:08:46.437Z,0.00
2019-03-25T01:09:46.416Z,0.00
2019-03-25T01:10:46.397Z,0.00
2019-03-25T01:11:49.391Z,0.00
2019-03-25T01:12:46.356Z,0.00
2019-03-25T01:13:46.339Z,0.00
2019-03-25T01:14:46.312Z,0.00
2019-03-25T01:15:46.293Z,0.00
2019-03-25T01:16:46.274Z,0.00
2019-03-25T01:17:46.270Z,0.00
2019-03-25T01:18:46.231Z,0.00
2019-03-25T01:19:46.209Z,0.00
2019-03-25T01:20:46.192Z,0.00
2019-03-25T01:21:46.173Z,0.00
2019-03-25T01:22:46.151Z,0.00
2019-03-25T01:23:46.128Z,0.00
2019-03-25T01:24:46.107Z,0.00
2019-03-25T01:25:46.099Z,0.00
2019-03-25T01:26:46.067Z,0.00
2019-03-25T01:27:46.050Z,0.00
2019-03-25T01:28:46.025Z,0.00
2019-03-25T01:29:46.006Z,0.00
2019-03-25T01:30:45.986Z,0.00
2019-03-25T01:31:45.967Z,0.00
2019-03-25T01:32:45.952Z,0.00
2019-03-25T01:33:45.934Z,0.00
2019-03-25T01:34:45.902Z,0.00
2019-03-25T01:35:45.884Z,0.00
2019-03-25T01:36:45.861Z,0.00
2019-03-25T01:37:45.842Z,0.00
2019-03-25T01:38:45.821Z,0.00
2019-03-25T01:39:45.797Z,0.00
2019-03-25T01:40:45.776Z,0.00
2019-03-25T01:41:45.755Z,0.00
2019-03-25T01:42:45.851Z,0.00
2019-03-25T01:43:45.715Z,0.00
2019-03-25T01:44:45.694Z,0.00
2019-03-25T01:45:45.670Z,0.00
2019-03-25T01:46:45.651Z,0.00
2019-03-25T01:47:45.632Z,0.00
2019-03-25T01:48:45.611Z,0.00
2019-03-25T01:49:45.590Z,0.00
2019-03-25T01:50:45.568Z,0.00
2019-03-25T01:51:45.549Z,0.00
2019-03-25T01:52:45.527Z,0.00
2019-03-25T01:53:45.515Z,0.00
2019-03-25T01:54:45.488Z,0.00
2019-03-25T01:55:45.466Z,0.00
2019-03-25T01:56:45.453Z,0.00
2019-03-25T01:57:45.424Z,0.00
2019-03-25T01:58:45.404Z,0.00
2019-03-25T01:59:45.384Z,0.00
2019-03-25T02:00:45.367Z,0.00
2019-03-25T02:01:45.346Z,0.00
2019-03-25T02:02:45.325Z,0.00
2019-03-25T02:03:45.304Z,0.00
2019-03-25T02:04:45.278Z,0.00
2019-03-25T02:05:45.259Z,0.00
2019-03-25T02:06:45.239Z,0.00
2019-03-25T02:07:45.223Z,0.00
2019-03-25T02:08:45.198Z,0.00
2019-03-25T02:09:45.178Z,0.00
2019-03-25T02:10:45.155Z,0.00
2019-03-25T02:11:45.134Z,0.00
2019-03-25T02:12:45.147Z,0.00
2019-03-25T02:13:45.096Z,0.00
2019-03-25T02:14:45.078Z,0.00
2019-03-25T02:15:45.050Z,0.00
2019-03-25T02:16:45.031Z,0.00
2019-03-25T02:17:45.009Z,0.00
2019-03-25T02:18:44.992Z,0.00
2019-03-25T02:19:44.969Z,0.00
2019-03-25T02:20:44.947Z,0.00
2019-03-25T02:21:44.964Z,0.00
2019-03-25T02:22:45.062Z,0.00
2019-03-25T02:23:44.888Z,0.00
2019-03-25T02:24:44.864Z,0.00
2019-03-25T02:25:44.850Z,0.00
2019-03-25T02:26:44.834Z,0.00
2019-03-25T02:27:44.806Z,0.00
2019-03-25T02:28:44.781Z,0.00
2019-03-25T02:29:44.763Z,0.00
2019-03-25T02:30:44.741Z,0.00
2019-03-25T02:31:44.765Z,0.00
2019-03-25T02:32:44.699Z,0.00
2019-03-25T02:33:44.686Z,0.00
2019-03-25T02:34:44.665Z,0.00
2019-03-25T02:35:44.657Z,0.00
2019-03-25T02:36:44.620Z,0.00
2019-03-25T02:37:44.597Z,0.00
2019-03-25T02:38:44.574Z,0.00
2019-03-25T02:39:44.554Z,0.00
2019-03-25T02:40:44.551Z,0.00
2019-03-25T02:41:44.522Z,0.00
2019-03-25T02:42:44.492Z,0.00
2019-03-25T02:43:44.469Z,0.00
2019-03-25T02:44:44.464Z,0.00
2019-03-25T02:45:44.434Z,0.00
2019-03-25T02:46:44.409Z,0.00
2019-03-25T02:47:44.408Z,0.00
2019-03-25T02:48:44.378Z,0.00
2019-03-25T02:49:44.351Z,0.00
2019-03-25T02:50:44.345Z,0.00
2019-03-25T02:51:44.306Z,0.00
2019-03-25T02:52:44.282Z,0.00
2019-03-25T02:53:44.268Z,0.00
2019-03-25T02:54:44.257Z,0.00
2019-03-25T02:55:44.220Z,0.00
2019-03-25T02:56:44.207Z,0.00
2019-03-25T02:57:44.182Z,0.00
2019-03-25T02:58:44.159Z,0.00
2019-03-25T02:59:44.153Z,0.00
2019-03-25T03:00:44.118Z,0.00
2019-03-25T03:01:44.097Z,0.00
2019-03-25T03:02:44.079Z,0.00
2019-03-25T03:03:44.058Z,0.00
2019-03-25T03:04:44.033Z,0.00
2019-03-25T03:05:44.014Z,0.00
2019-03-25T03:06:43.997Z,0.00
2019-03-25T03:07:43.972Z,0.00
2019-03-25T03:08:47.321Z,0.00
2019-03-25T03:09:43.932Z,0.00
2019-03-25T03:10:43.922Z,0.00
2019-03-25T03:11:43.890Z,0.00
2019-03-25T03:12:43.869Z,0.00
2019-03-25T03:13:43.846Z,0.00
2019-03-25T03:14:43.832Z,0.00
2019-03-25T03:15:43.821Z,0.00
2019-03-25T03:16:43.798Z,0.00
2019-03-25T03:17:43.765Z,0.00
2019-03-25T03:18:43.744Z,0.00
2019-03-25T03:19:43.724Z,0.00
2019-03-25T03:20:43.706Z,0.00
2019-03-25T03:21:43.686Z,0.00
2019-03-25T03:22:43.664Z,0.00
2019-03-25T03:23:43.642Z,0.00
2019-03-25T03:24:43.628Z,0.00
2019-03-25T03:25:56.242Z,0.00
2019-03-25T03:26:43.580Z,0.00
2019-03-25T03:27:43.558Z,0.00
2019-03-25T03:28:43.548Z,0.00
2019-03-25T03:29:43.598Z,0.00
2019-03-25T03:30:43.495Z,0.00
2019-03-25T03:31:43.476Z,0.00
2019-03-25T03:32:43.466Z,0.00
2019-03-25T03:33:43.474Z,0.00
2019-03-25T03:34:43.412Z,0.00
2019-03-25T03:35:46.339Z,0.00
2019-03-25T03:36:43.369Z,0.00
2019-03-25T03:37:43.344Z,0.00
2019-03-25T03:38:43.325Z,0.00
2019-03-25T03:39:43.318Z,0.00
2019-03-25T03:40:43.285Z,0.00
2019-03-25T03:41:43.269Z,0.00
2019-03-25T03:42:43.241Z,0.00
2019-03-25T03:43:43.223Z,0.00
2019-03-25T03:44:43.201Z,0.00
2019-03-25T03:45:43.212Z,0.00
2019-03-25T03:46:43.160Z,0.00
2019-03-25T03:47:43.137Z,0.00
2019-03-25T03:48:43.117Z,0.00
2019-03-25T03:49:43.096Z,0.00
2019-03-25T03:50:43.079Z,0.00
2019-03-25T03:51:43.063Z,0.00
2019-03-25T03:52:43.052Z,0.00
2019-03-25T03:53:43.012Z,0.00
2019-03-25T03:54:43.005Z,0.00
2019-03-25T03:55:42.971Z,0.00
2019-03-25T03:56:42.950Z,0.00
2019-03-25T03:57:42.943Z,0.00
2019-03-25T03:58:42.912Z,0.00
2019-03-25T03:59:42.887Z,0.00
2019-03-25T04:00:42.869Z,0.00
2019-03-25T04:01:42.846Z,0.00
2019-03-25T04:02:42.825Z,0.00
2019-03-25T04:03:42.807Z,0.00
2019-03-25T04:04:42.782Z,0.00
2019-03-25T04:05:42.765Z,0.00
2019-03-25T04:06:42.741Z,0.00
2019-03-25T04:07:42.726Z,0.00
2019-03-25T04:08:42.700Z,0.00
2019-03-25T04:09:42.677Z,0.00
2019-03-25T04:10:42.656Z,0.00
2019-03-25T04:11:42.636Z,0.00
2019-03-25T04:12:42.613Z,0.00
2019-03-25T04:13:42.598Z,0.00
2019-03-25T04:14:42.574Z,0.00
2019-03-25T04:15:42.556Z,0.00
2019-03-25T04:16:42.529Z,0.00
2019-03-25T04:17:42.514Z,0.00
2019-03-25T04:18:42.487Z,0.00
2019-03-25T04:19:42.474Z,0.00
2019-03-25T04:20:42.447Z,0.00
2019-03-25T04:21:42.429Z,0.00
2019-03-25T04:22:42.410Z,0.00
2019-03-25T04:23:42.386Z,0.00
2019-03-25T04:24:42.367Z,0.00
2019-03-25T04:25:42.342Z,0.00
2019-03-25T04:26:42.321Z,0.00
2019-03-25T04:27:42.317Z,0.00
2019-03-25T04:28:42.278Z,0.00
2019-03-25T04:29:42.259Z,0.00
2019-03-25T04:30:42.235Z,0.00
2019-03-25T04:31:42.216Z,0.00
2019-03-25T04:32:42.197Z,0.00
2019-03-25T04:33:42.170Z,0.00
2019-03-25T04:34:42.150Z,0.00
2019-03-25T04:35:42.130Z,0.00
2019-03-25T04:36:42.115Z,0.00
2019-03-25T04:37:42.087Z,0.00
2019-03-25T04:38:42.067Z,0.00
2019-03-25T04:39:42.048Z,0.00
2019-03-25T04:40:42.026Z,0.00
2019-03-25T04:41:42.002Z,0.00
2019-03-25T04:42:41.987Z,0.00
2019-03-25T04:43:41.960Z,0.00
2019-03-25T04:44:41.949Z,0.00
2019-03-25T04:45:41.918Z,0.00
2019-03-25T04:46:41.957Z,0.00
2019-03-25T04:47:41.876Z,0.00
2019-03-25T04:48:41.857Z,0.00
2019-03-25T04:49:41.832Z,4.00
2019-03-25T04:50:41.812Z,4.00
2019-03-25T04:51:41.790Z,0.00
2019-03-25T04:52:41.768Z,4.00
2019-03-25T04:53:41.748Z,4.00
2019-03-25T04:54:41.726Z,4.00
2019-03-25T04:55:41.707Z,4.00
2019-03-25T04:56:41.689Z,8.00
2019-03-25T04:57:41.666Z,8.00
2019-03-25T04:58:41.641Z,8.00
2019-03-25T04:59:41.621Z,8.00
2019-03-25T05:00:41.610Z,12.00
2019-03-25T05:01:41.596Z,8.00
2019-03-25T05:02:41.581Z,12.00
2019-03-25T05:03:41.540Z,16.00
2019-03-25T05:04:41.518Z,16.00
2019-03-25T05:05:41.497Z,20.00
2019-03-25T05:06:41.475Z,24.00
2019-03-25T05:07:41.449Z,28.00
2019-03-25T05:08:41.428Z,32.00
2019-03-25T05:09:41.409Z,36.00
2019-03-25T05:10:41.387Z,40.00
2019-03-25T05:11:41.367Z,44.00
2019-03-25T05:12:41.360Z,52.00
2019-03-25T05:13:41.322Z,60.00
2019-03-25T05:14:41.306Z,68.00
2019-03-25T05:15:41.504Z,80.00
2019-03-25T05:16:41.258Z,88.00
2019-03-25T05:17:41.247Z,100.00
2019-03-25T05:18:41.225Z,112.00
2019-03-25T05:19:41.194Z,128.00
2019-03-25T05:20:41.176Z,144.00
2019-03-25T05:21:41.152Z,160.00
2019-03-25T05:22:41.132Z,176.00
2019-03-25T05:23:41.110Z,192.00
2019-03-25T05:24:41.094Z,208.00
2019-03-25T05:25:41.069Z,228.00
2019-03-25T05:26:50.473Z,252.00
2019-03-25T05:27:41.024Z,272.00
2019-03-25T05:28:41.002Z,292.00
2019-03-25T05:29:40.989Z,320.00
2019-03-25T05:30:40.959Z,344.00
2019-03-25T05:31:40.966Z,372.00
2019-03-25T05:32:40.922Z,392.00
2019-03-25T05:33:40.896Z,412.00
2019-03-25T05:34:40.915Z,444.00
2019-03-25T05:35:40.856Z,464.00
2019-03-25T05:36:40.833Z,480.00
2019-03-25T05:37:40.810Z,504.00
2019-03-25T05:38:40.787Z,500.00
2019-03-25T05:39:40.766Z,476.00
2019-03-25T05:40:40.747Z,456.00
2019-03-25T05:41:40.724Z,504.00
2019-03-25T05:42:40.734Z,568.00
2019-03-25T05:43:40.684Z,660.00
2019-03-25T05:44:40.659Z,820.00
2019-03-25T05:45:40.639Z,836.00
2019-03-25T05:46:40.623Z,828.00
2019-03-25T05:47:40.593Z,756.00
2019-03-25T05:48:40.654Z,612.00
2019-03-25T05:49:40.555Z,452.00
2019-03-25T05:50:40.537Z,232.00
2019-03-25T05:51:40.516Z,56.00
2019-03-25T05:52:40.487Z,44.00
2019-03-25T05:53:40.469Z,32.00
2019-03-25T05:54:40.444Z,28.00
2019-03-25T05:55:41.006Z,36.00
2019-03-25T05:56:40.402Z,64.00
2019-03-25T05:57:40.388Z,96.00
2019-03-25T05:58:40.369Z,140.00
2019-03-25T05:59:40.336Z,184.00
2019-03-25T06:00:40.322Z,228.00
2019-03-25T06:01:40.299Z,280.00
2019-03-25T06:02:40.276Z,344.00
2019-03-25T06:03:40.255Z,416.00
2019-03-25T06:04:40.229Z,496.00
2019-03-25T06:05:40.209Z,576.00
2019-03-25T06:06:40.190Z,652.00
2019-03-25T06:07:40.167Z,724.00
2019-03-25T06:08:40.157Z,848.00
2019-03-25T06:09:40.128Z,968.00
2019-03-25T06:10:40.109Z,1016.00
2019-03-25T06:11:40.082Z,1084.00
2019-03-25T06:12:42.406Z,1200.00
2019-03-25T06:13:40.041Z,1312.00
2019-03-25T06:14:40.018Z,1584.00
2019-03-25T06:15:39.996Z,2020.00
2019-03-25T06:16:39.975Z,2276.00
2019-03-25T06:17:39.951Z,2464.00
2019-03-25T06:18:39.931Z,2612.00
2019-03-25T06:19:39.912Z,2788.00
2019-03-25T06:20:39.890Z,2940.00
2019-03-25T06:21:39.873Z,3088.00
2019-03-25T06:22:39.848Z,3688.00
2019-03-25T06:23:39.828Z,4244.00
2019-03-25T06:24:39.800Z,4108.00
2019-03-25T06:25:39.791Z,3656.00
2019-03-25T06:26:39.760Z,2900.00
2019-03-25T06:27:39.739Z,2188.00
2019-03-25T06:28:39.720Z,1740.00
2019-03-25T06:29:39.694Z,1396.00
2019-03-25T06:30:39.678Z,1176.00
2019-03-25T06:31:39.655Z,1076.00
2019-03-25T06:32:39.633Z,1140.00
2019-03-25T06:33:39.614Z,1016.00
2019-03-25T06:34:39.591Z,816.00
2019-03-25T06:35:39.570Z,712.00
2019-03-25T06:36:39.553Z,660.00
2019-03-25T06:37:39.526Z,616.00
2019-03-25T06:38:39.508Z,620.00
2019-03-25T06:39:39.487Z,624.00
2019-03-25T06:40:39.469Z,728.00
2019-03-25T06:41:39.442Z,848.00
2019-03-25T06:42:39.428Z,1116.00
2019-03-25T06:43:39.410Z,1556.00
2019-03-25T06:44:39.385Z,1816.00
2019-03-25T06:45:39.360Z,1788.00
2019-03-25T06:46:39.339Z,2024.00
2019-03-25T06:47:39.322Z,1756.00
2019-03-25T06:48:39.295Z,1320.00
2019-03-25T06:49:39.286Z,1068.00
2019-03-25T06:50:39.263Z,1248.00
2019-03-25T06:51:39.234Z,1332.00
2019-03-25T06:52:39.220Z,2516.00
2019-03-25T06:53:39.196Z,2588.00
2019-03-25T06:54:39.176Z,1744.00
2019-03-25T06:55:39.157Z,1272.00
2019-03-25T06:56:39.130Z,1356.00
2019-03-25T06:57:39.113Z,1152.00
2019-03-25T06:58:39.090Z,1060.00
2019-03-25T06:59:39.068Z,668.00
2019-03-25T07:00:39.051Z,544.00
2019-03-25T07:01:39.028Z,600.00
2019-03-25T07:02:39.008Z,672.00
2019-03-25T07:03:38.990Z,640.00
2019-03-25T07:04:38.967Z,516.00
2019-03-25T07:05:38.951Z,516.00
2019-03-25T07:06:38.925Z,536.00
2019-03-25T07:07:38.907Z,476.00
2019-03-25T07:08:38.881Z,548.00
2019-03-25T07:09:38.861Z,544.00
2019-03-25T07:10:38.842Z,416.00
2019-03-25T07:11:38.821Z,396.00
2019-03-25T07:12:38.798Z,516.00
2019-03-25T07:13:38.778Z,704.00
2019-03-25T07:14:38.763Z,1148.00
2019-03-25T07:15:38.739Z,1636.00
2019-03-25T07:16:38.725Z,2312.00
2019-03-25T07:17:38.701Z,3172.00
2019-03-25T07:18:38.678Z,8000.00
2019-03-25T07:19:38.655Z,13212.00
2019-03-25T07:20:38.651Z,7804.00
2019-03-25T07:21:38.612Z,16768.00
2019-03-25T07:22:38.592Z,19104.00
2019-03-25T07:23:38.569Z,8328.00
2019-03-25T07:24:38.557Z,4780.00
2019-03-25T07:25:38.528Z,3820.00
2019-03-25T07:26:38.515Z,6980.00
2019-03-25T07:27:38.487Z,23936.00
2019-03-25T07:28:38.842Z,64736.00
2019-03-25T07:29:38.466Z,70752.00
2019-03-25T07:30:38.442Z,72640.00
2019-03-25T07:31:38.413Z,29792.00
2019-03-25T07:32:38.395Z,10604.00
2019-03-25T07:33:38.377Z,19072.00
2019-03-25T07:34:38.361Z,8216.00
2019-03-25T07:35:38.346Z,3840.00
2019-03-25T07:36:38.322Z,1948.00
2019-03-25T07:37:38.305Z,2040.00
2019-03-25T07:38:38.287Z,6548.00
2019-03-25T07:39:38.268Z,20256.00
2019-03-25T07:40:38.257Z,10176.00
2019-03-25T07:41:38.230Z,3872.00
2019-03-25T07:42:38.218Z,1732.00
2019-03-25T07:43:38.194Z,1544.00
2019-03-25T07:44:38.190Z,1340.00
2019-03-25T07:45:38.156Z,1584.00
2019-03-25T07:46:38.136Z,2104.00
2019-03-25T07:47:38.116Z,2276.00
2019-03-25T07:48:38.097Z,1628.00
2019-03-25T07:49:38.077Z,1900.00
2019-03-25T07:50:38.060Z,1688.00
2019-03-25T07:51:38.048Z,1268.00
2019-03-25T07:52:38.019Z,928.00
2019-03-25T07:53:38.005Z,564.00
2019-03-25T07:54:37.988Z,448.00
2019-03-25T07:55:37.995Z,560.00
2019-03-25T07:56:37.968Z,732.00
2019-03-25T07:57:47.665Z,720.00
2019-03-25T07:58:37.904Z,648.00
2019-03-25T07:59:37.896Z,656.00
2019-03-25T08:00:37.903Z,908.00
2019-03-25T08:01:37.846Z,1140.00
2019-03-25T08:02:37.836Z,1168.00
2019-03-25T08:03:37.803Z,1252.00
2019-03-25T08:04:38.793Z,1192.00
2019-03-25T08:05:37.759Z,920.00
2019-03-25T08:06:37.745Z,680.00
2019-03-25T08:07:37.734Z,628.00
2019-03-25T08:08:37.707Z,756.00
2019-03-25T08:09:37.683Z,792.00
2019-03-25T08:10:37.658Z,744.00
2019-03-25T08:11:37.639Z,708.00
2019-03-25T08:12:37.624Z,664.00
2019-03-25T08:13:37.631Z,656.00
2019-03-25T08:14:37.579Z,716.00
2019-03-25T08:15:37.571Z,992.00
2019-03-25T08:16:37.536Z,1504.00
2019-03-25T08:17:37.514Z,1784.00
2019-03-25T08:18:37.489Z,2504.00
2019-03-25T08:19:37.470Z,3152.00
2019-03-25T08:20:37.449Z,3788.00
2019-03-25T08:21:37.433Z,4364.00
2019-03-25T08:22:37.410Z,6096.00
2019-03-25T08:23:37.393Z,26976.00
2019-03-25T08:24:37.375Z,35936.00
2019-03-25T08:25:37.346Z,56736.00
2019-03-25T08:26:37.324Z,61536.00
2019-03-25T08:27:37.308Z,87232.00
2019-03-25T08:28:37.290Z,51968.00
2019-03-25T08:29:37.278Z,80672.00
2019-03-25T08:30:37.266Z,70720.00
2019-03-25T08:31:37.242Z,66272.00
2019-03-25T08:32:37.226Z,73312.00
2019-03-25T08:33:37.216Z,53408.00
2019-03-25T08:34:37.199Z,74912.00
2019-03-25T08:35:37.195Z,26720.00
2019-03-25T08:36:37.182Z,64768.00
2019-03-25T08:37:37.163Z,62432.00
2019-03-25T08:38:37.158Z,61856.00
2019-03-25T08:39:37.142Z,61024.00
2019-03-25T08:40:37.132Z,28672.00
2019-03-25T08:41:37.134Z,44352.00
2019-03-25T08:42:37.115Z,42272.00
2019-03-25T08:43:37.119Z,47712.00
2019-03-25T08:44:37.097Z,37504.00
2019-03-25T08:45:37.083Z,35264.00
2019-03-25T08:46:37.074Z,10288.00
2019-03-25T08:47:37.062Z,50912.00
2019-03-25T08:48:37.055Z,71104.00
2019-03-25T08:49:37.044Z,77280.00
2019-03-25T08:50:37.034Z,51872.00
2019-03-25T08:51:37.032Z,39680.00
2019-03-25T08:52:37.013Z,45696.00
2019-03-25T08:53:37.007Z,20704.00
2019-03-25T08:54:37.996Z,23392.00
2019-03-25T08:55:36.990Z,31904.00
2019-03-25T08:56:36.981Z,83424.00
2019-03-25T08:57:36.969Z,13256.00
2019-03-25T08:58:36.967Z,11952.00
2019-03-25T08:59:36.958Z,18784.00
2019-03-25T09:00:36.940Z,18080.00
2019-03-25T09:01:36.931Z,13148.00
2019-03-25T09:02:36.922Z,8728.00
2019-03-25T09:03:36.910Z,27520.00
2019-03-25T09:04:36.903Z,7512.00
2019-03-25T09:05:36.888Z,9924.00
2019-03-25T09:06:36.877Z,8148.00
2019-03-25T09:07:36.863Z,7676.00
2019-03-25T09:08:36.852Z,6788.00
2019-03-25T09:09:36.838Z,6724.00
2019-03-25T09:10:36.830Z,5800.00
2019-03-25T09:11:36.822Z,5936.00
2019-03-25T09:12:36.801Z,5780.00
2019-03-25T09:13:36.797Z,8884.00
2019-03-25T09:14:36.777Z,7600.00
2019-03-25T09:15:36.759Z,9844.00
2019-03-25T09:16:36.754Z,9620.00
2019-03-25T09:17:36.728Z,8828.00
2019-03-25T09:18:36.713Z,6776.00
2019-03-25T09:19:36.699Z,11576.00
2019-03-25T09:20:36.684Z,5268.00
2019-03-25T09:21:36.675Z,3588.00
2019-03-25T09:22:36.667Z,3620.00
2019-03-25T09:23:36.640Z,5192.00
2019-03-25T09:24:36.625Z,6504.00
2019-03-25T09:25:36.608Z,6588.00
2019-03-25T09:26:36.597Z,5996.00
2019-03-25T09:27:36.590Z,3596.00
2019-03-25T09:28:36.563Z,3208.00
2019-03-25T09:29:36.548Z,3272.00
2019-03-25T09:30:36.541Z,2676.00
2019-03-25T09:31:37.217Z,2368.00
2019-03-25T09:32:36.494Z,1472.00
2019-03-25T09:33:36.480Z,896.00
2019-03-25T09:34:36.466Z,488.00
2019-03-25T09:35:36.449Z,420.00
2019-03-25T09:36:36.439Z,432.00
2019-03-25T09:37:36.415Z,452.00
2019-03-25T09:38:36.394Z,560.00
2019-03-25T09:39:36.378Z,968.00
2019-03-25T09:40:36.360Z,1636.00
2019-03-25T09:41:36.341Z,2076.00
2019-03-25T09:42:36.325Z,2152.00
2019-03-25T09:43:36.327Z,1776.00
2019-03-25T09:44:36.297Z,2668.00
2019-03-25T09:45:36.270Z,3372.00
2019-03-25T09:46:36.258Z,3984.00
2019-03-25T09:47:37.846Z,7740.00
2019-03-25T09:48:36.213Z,13252.00
2019-03-25T09:49:36.194Z,8812.00
2019-03-25T09:50:36.170Z,7172.00
2019-03-25T09:51:36.154Z,7200.00
2019-03-25T09:52:38.814Z,6480.00
2019-03-25T09:53:36.116Z,10344.00
2019-03-25T09:54:36.098Z,8404.00
2019-03-25T09:55:36.085Z,5096.00
2019-03-25T09:56:36.063Z,5652.00
2019-03-25T09:57:36.045Z,5720.00
2019-03-25T09:58:36.768Z,7940.00
2019-03-25T09:59:36.011Z,4628.00
2019-03-25T10:00:35.990Z,2468.00
2019-03-25T10:01:35.978Z,1956.00
2019-03-25T10:02:35.954Z,2124.00
2019-03-25T10:03:35.935Z,2888.00
2019-03-25T10:04:35.917Z,4864.00
2019-03-25T10:05:35.897Z,7052.00
2019-03-25T10:06:35.879Z,7712.00
2019-03-25T10:07:35.868Z,8772.00
2019-03-25T10:08:35.839Z,3488.00
2019-03-25T10:09:35.829Z,2232.00
2019-03-25T10:10:35.805Z,1812.00
2019-03-25T10:11:35.783Z,2368.00
2019-03-25T10:12:35.765Z,2116.00
2019-03-25T10:13:35.747Z,2492.00
2019-03-25T10:14:35.738Z,2064.00
2019-03-25T10:15:35.707Z,2992.00
2019-03-25T10:16:35.695Z,3644.00
2019-03-25T10:17:35.667Z,6532.00
2019-03-25T10:18:35.656Z,8792.00
2019-03-25T10:19:35.647Z,7888.00
2019-03-25T10:20:35.615Z,6184.00
2019-03-25T10:21:35.593Z,6132.00
2019-03-25T10:22:35.580Z,6580.00
2019-03-25T10:23:35.556Z,6216.00
2019-03-25T10:24:35.536Z,4720.00
2019-03-25T10:25:35.527Z,6744.00
2019-03-25T10:26:35.505Z,5692.00
2019-03-25T10:27:35.482Z,8832.00
2019-03-25T10:28:47.517Z,7580.00
2019-03-25T10:29:35.445Z,10908.00
2019-03-25T10:30:35.427Z,10072.00
2019-03-25T10:31:35.409Z,9748.00
2019-03-25T10:32:35.397Z,9596.00
2019-03-25T10:33:35.376Z,9476.00
2019-03-25T10:34:35.370Z,9432.00
2019-03-25T10:35:35.335Z,9296.00
2019-03-25T10:36:35.318Z,9224.00
2019-03-25T10:37:35.301Z,9128.00
2019-03-25T10:38:35.287Z,9120.00
2019-03-25T10:39:35.267Z,9432.00
2019-03-25T10:40:35.253Z,9928.00
2019-03-25T10:41:35.230Z,10636.00
2019-03-25T10:42:35.214Z,10820.00
2019-03-25T10:43:35.201Z,10556.00
2019-03-25T10:44:35.183Z,10732.00
2019-03-25T10:45:35.165Z,7020.00
2019-03-25T10:46:35.147Z,11168.00
2019-03-25T10:47:35.135Z,9016.00
2019-03-25T10:48:35.120Z,7232.00
2019-03-25T10:49:35.104Z,5856.00
2019-03-25T10:50:35.089Z,4448.00
2019-03-25T10:51:35.071Z,3884.00
2019-03-25T10:52:35.058Z,2672.00
2019-03-25T10:53:35.036Z,3380.00
2019-03-25T10:54:35.075Z,4640.00
2019-03-25T10:55:35.005Z,5560.00
2019-03-25T10:56:34.984Z,4984.00
2019-03-25T10:57:34.968Z,5104.00
2019-03-25T10:58:34.959Z,8976.00
2019-03-25T10:59:34.933Z,9508.00
2019-03-25T11:00:34.914Z,9444.00
2019-03-25T11:01:34.902Z,9400.00
2019-03-25T11:02:34.888Z,9624.00
2019-03-25T11:03:34.865Z,9896.00
2019-03-25T11:04:34.857Z,10452.00
2019-03-25T11:05:34.839Z,10708.00
2019-03-25T11:06:34.827Z,10904.00
2019-03-25T11:07:34.883Z,10532.00
2019-03-25T11:08:34.792Z,10648.00
2019-03-25T11:09:34.765Z,6780.00
2019-03-25T11:10:34.751Z,11092.00
2019-03-25T11:11:34.732Z,11120.00
2019-03-25T11:12:34.716Z,12140.00
2019-03-25T11:13:34.709Z,13188.00
2019-03-25T11:14:34.681Z,8584.00
2019-03-25T11:15:34.671Z,7408.00
2019-03-25T11:16:34.650Z,6792.00
2019-03-25T11:17:34.634Z,6668.00
2019-03-25T11:18:34.619Z,6804.00
2019-03-25T11:19:34.600Z,5440.00
2019-03-25T11:20:34.582Z,4848.00
2019-03-25T11:21:34.570Z,3944.00
2019-03-25T11:22:34.546Z,3020.00
2019-03-25T11:23:34.533Z,2176.00
2019-03-25T11:24:34.515Z,1252.00
2019-03-25T11:25:34.500Z,968.00
2019-03-25T11:26:34.480Z,832.00
2019-03-25T11:27:34.466Z,616.00
2019-03-25T11:28:34.447Z,492.00
2019-03-25T11:29:34.440Z,504.00
2019-03-25T11:30:34.409Z,660.00
2019-03-25T11:31:34.396Z,772.00
2019-03-25T11:32:34.372Z,844.00
2019-03-25T11:33:34.352Z,976.00
2019-03-25T11:34:34.336Z,1076.00
2019-03-25T11:35:34.323Z,1196.00
2019-03-25T11:36:34.302Z,1380.00
2019-03-25T11:37:34.281Z,1552.00
2019-03-25T11:38:34.258Z,1720.00
2019-03-25T11:39:34.238Z,1852.00
2019-03-25T11:40:34.219Z,2000.00
2019-03-25T11:41:34.200Z,2172.00
2019-03-25T11:42:34.180Z,2364.00
2019-03-25T11:43:34.163Z,2584.00
2019-03-25T11:44:34.142Z,2832.00
2019-03-25T11:45:34.139Z,3156.00
2019-03-25T11:46:34.107Z,3468.00
2019-03-25T11:47:34.082Z,3616.00
2019-03-25T11:48:34.065Z,3708.00
2019-03-25T11:49:34.043Z,3796.00
2019-03-25T11:50:34.024Z,4304.00
2019-03-25T11:51:34.006Z,4348.00
2019-03-25T11:52:33.986Z,6280.00
2019-03-25T11:53:33.969Z,7204.00
2019-03-25T11:54:33.949Z,8144.00
2019-03-25T11:55:33.935Z,8448.00
2019-03-25T11:56:33.909Z,8596.00
2019-03-25T11:57:33.886Z,8560.00
2019-03-25T11:58:33.872Z,8532.00
2019-03-25T11:59:33.853Z,8504.00
2019-03-25T12:00:33.827Z,8500.00
2019-03-25T12:01:33.813Z,8456.00
2019-03-25T12:02:33.793Z,8504.00
2019-03-25T12:03:33.787Z,8432.00
2019-03-25T12:04:33.750Z,8424.00
2019-03-25T12:05:33.734Z,8384.00
2019-03-25T12:06:33.722Z,8448.00
2019-03-25T12:07:33.697Z,8520.00
2019-03-25T12:08:33.680Z,8388.00
2019-03-25T12:09:33.663Z,8460.00
2019-03-25T12:10:33.650Z,8460.00
2019-03-25T12:11:33.628Z,8716.00
2019-03-25T12:12:33.607Z,8460.00
2019-03-25T12:13:33.591Z,8452.00
2019-03-25T12:14:33.576Z,8424.00
2019-03-25T12:15:33.557Z,8520.00
2019-03-25T12:16:33.539Z,8528.00
2019-03-25T12:17:33.528Z,8460.00
2019-03-25T12:18:33.504Z,8468.00
2019-03-25T12:19:33.493Z,8468.00
2019-03-25T12:20:33.467Z,8516.00
2019-03-25T12:21:33.449Z,8516.00
2019-03-25T12:22:33.442Z,8556.00
2019-03-25T12:23:33.418Z,8716.00
2019-03-25T12:24:33.396Z,8892.00
2019-03-25T12:25:33.383Z,8760.00
2019-03-25T12:26:33.362Z,3144.00
2019-03-25T12:27:33.397Z,3268.00
2019-03-25T12:28:33.346Z,7944.00
2019-03-25T12:29:33.316Z,10264.00
2019-03-25T12:30:33.303Z,5476.00
2019-03-25T12:31:33.287Z,4328.00
2019-03-25T12:32:33.272Z,4384.00
2019-03-25T12:33:33.254Z,4312.00
2019-03-25T12:34:33.337Z,5644.00
2019-03-25T12:35:33.221Z,5160.00